createdAt,value
2022-12-08T00:01:12.959Z,25.33
2022-12-08T00:03:39.520Z,24.75
2022-12-08T00:06:25.273Z,24.58
2022-12-08T00:09:10.103Z,23.45
2022-12-08T00:11:36.776Z,24.92
2022-12-08T00:14:03.421Z,23.02
2022-12-08T00:16:29.848Z,23.73
2022-12-08T00:18:56.275Z,23.25
2022-12-08T00:21:22.674Z,22.73
2022-12-08T00:23:49.302Z,21.95
2022-12-08T00:26:15.744Z,21.65
2022-12-08T00:28:42.252Z,22.08
2022-12-08T00:31:10.237Z,22.77
2022-12-08T00:33:36.700Z,22.63
2022-12-08T00:36:07.114Z,24.67
2022-12-08T00:38:33.541Z,23.35
2022-12-08T00:40:59.912Z,23.63
2022-12-08T00:43:26.806Z,23.35
2022-12-08T00:45:53.230Z,23.73
2022-12-08T00:48:19.702Z,23.58
2022-12-08T00:50:46.060Z,21.45
2022-12-08T00:53:12.420Z,22.80
2022-12-08T00:55:38.792Z,22.08
2022-12-08T00:58:05.206Z,21.23
2022-12-08T01:00:31.590Z,20.10
2022-12-08T01:02:58.085Z,20.83
2022-12-08T01:05:24.489Z,22.92
2022-12-08T01:07:50.894Z,20.92
2022-12-08T01:10:17.351Z,20.90
2022-12-08T01:12:43.720Z,21.48
2022-12-08T01:15:10.227Z,20.52
2022-12-08T01:17:39.627Z,20.30
2022-12-08T01:20:06.966Z,21.77
2022-12-08T01:22:34.268Z,22.02
2022-12-08T01:25:00.702Z,22.42
2022-12-08T01:27:27.120Z,21.08
2022-12-08T01:29:53.474Z,21.48
2022-12-08T01:32:19.836Z,20.38
2022-12-08T01:34:46.217Z,22.33
2022-12-08T01:37:12.685Z,21.55
2022-12-08T01:39:41.187Z,22.00
2022-12-08T01:42:18.454Z,21.35
2022-12-08T01:44:44.804Z,20.17
2022-12-08T01:47:11.808Z,20.13
2022-12-08T01:49:38.191Z,20.20
2022-12-08T01:52:13.665Z,20.63
2022-12-08T01:54:43.517Z,19.25
2022-12-08T01:57:22.227Z,19.25
2022-12-08T01:59:52.832Z,18.95
2022-12-08T02:02:19.281Z,20.10
2022-12-08T02:04:45.690Z,19.65
2022-12-08T02:07:12.552Z,20.58
2022-12-08T02:09:39.840Z,20.35
2022-12-08T02:12:06.479Z,19.98
2022-12-08T02:14:33.854Z,19.77
2022-12-08T02:17:00.224Z,20.20
2022-12-08T02:19:44.783Z,20.55
2022-12-08T02:22:26.120Z,20.55
2022-12-08T02:24:52.542Z,20.63
2022-12-08T02:27:32.720Z,20.48
2022-12-08T02:30:04.882Z,20.10
2022-12-08T02:32:37.447Z,20.45
2022-12-08T02:35:20.862Z,20.60
2022-12-08T02:37:49.652Z,19.48
2022-12-08T02:40:34.559Z,20.25
2022-12-08T02:43:03.657Z,19.27
2022-12-08T02:45:33.987Z,18.85
2022-12-08T02:48:00.631Z,19.92
2022-12-08T02:50:27.971Z,18.67
2022-12-08T02:52:54.627Z,20.63
2022-12-08T02:55:28.772Z,19.67
2022-12-08T02:58:12.149Z,18.45
2022-12-08T03:00:47.944Z,19.38
2022-12-08T03:03:19.595Z,20.55
2022-12-08T03:05:51.899Z,20.60
2022-12-08T03:08:32.579Z,19.70
2022-12-08T03:11:04.938Z,19.45
2022-12-08T03:13:38.536Z,18.55
2022-12-08T03:16:07.025Z,19.40
2022-12-08T03:18:36.379Z,18.50
2022-12-08T03:21:03.868Z,18.98
2022-12-08T03:23:30.698Z,18.75
2022-12-08T03:26:00.576Z,18.60
2022-12-08T03:28:27.443Z,18.27
2022-12-08T03:30:55.681Z,17.95
2022-12-08T03:33:28.486Z,17.95
2022-12-08T03:35:55.667Z,18.52
2022-12-08T03:38:22.431Z,19.10
2022-12-08T03:41:07.511Z,17.33
2022-12-08T03:43:33.874Z,18.08
2022-12-08T03:46:00.345Z,17.77
2022-12-08T03:48:26.855Z,16.35
2022-12-08T03:50:53.264Z,17.98
2022-12-08T03:53:19.639Z,18.40
2022-12-08T03:55:46.022Z,17.20
2022-12-08T03:58:12.377Z,17.85
2022-12-08T04:00:38.825Z,16.98
2022-12-08T04:03:06.438Z,16.98
2022-12-08T04:05:32.857Z,16.92
2022-12-08T04:07:59.291Z,16.30
2022-12-08T04:10:25.741Z,16.60
2022-12-08T04:12:52.091Z,16.95
2022-12-08T04:15:18.452Z,17.10
2022-12-08T04:17:44.810Z,17.00
2022-12-08T04:20:11.480Z,16.15
2022-12-08T04:22:37.851Z,16.73
2022-12-08T04:25:04.695Z,16.20
2022-12-08T04:27:31.079Z,15.20
2022-12-08T04:29:57.477Z,15.98
2022-12-08T04:32:23.844Z,15.32
2022-12-08T04:34:50.230Z,15.40
2022-12-08T04:37:16.644Z,15.65
2022-12-08T04:39:43.023Z,15.93
2022-12-08T04:42:09.423Z,16.08
2022-12-08T04:44:35.795Z,16.50
2022-12-08T04:47:02.264Z,14.82
2022-12-08T04:49:28.763Z,15.23
2022-12-08T04:51:55.180Z,14.80
2022-12-08T04:54:21.634Z,15.57
2022-12-08T04:56:47.986Z,15.95
2022-12-08T04:59:14.355Z,15.05
2022-12-08T05:01:40.931Z,16.25
2022-12-08T05:04:07.432Z,15.68
2022-12-08T05:06:33.831Z,17.00
2022-12-08T05:09:00.201Z,16.42
2022-12-08T05:11:26.659Z,16.67
2022-12-08T05:13:53.082Z,16.13
2022-12-08T05:16:19.481Z,16.60
2022-12-08T05:18:45.897Z,16.50
2022-12-08T05:21:12.499Z,15.63
2022-12-08T05:23:39.045Z,17.63
2022-12-08T05:26:05.581Z,17.40
2022-12-08T05:28:41.438Z,14.90
2022-12-08T05:31:09.056Z,15.23
2022-12-08T05:33:35.542Z,15.40
2022-12-08T05:36:01.941Z,16.13
2022-12-08T05:38:28.310Z,16.23
2022-12-08T05:40:54.737Z,15.63
2022-12-08T05:43:21.114Z,15.93
2022-12-08T05:45:47.579Z,15.95
2022-12-08T05:48:14.062Z,16.63
2022-12-08T05:50:40.446Z,15.30
2022-12-08T05:53:06.831Z,15.13
2022-12-08T05:55:33.230Z,15.30
2022-12-08T05:58:03.129Z,15.65
2022-12-08T06:00:34.896Z,15.15
2022-12-08T06:03:01.519Z,14.95
2022-12-08T06:05:27.994Z,15.55
2022-12-08T06:07:54.854Z,15.55
2022-12-08T06:10:21.270Z,14.98
2022-12-08T06:12:47.631Z,15.60
2022-12-08T06:15:14.017Z,15.68
2022-12-08T06:17:40.384Z,14.98
2022-12-08T06:20:07.332Z,15.70
2022-12-08T06:22:33.993Z,14.63
2022-12-08T06:25:00.448Z,15.23
2022-12-08T06:27:26.844Z,14.85
2022-12-08T06:29:53.247Z,15.93
2022-12-08T06:32:24.347Z,20.08
2022-12-08T06:34:53.675Z,18.98
2022-12-08T06:37:20.077Z,19.35
2022-12-08T06:39:46.435Z,16.92
2022-12-08T06:42:31.262Z,17.00
2022-12-08T06:44:57.713Z,19.30
2022-12-08T06:47:26.290Z,18.67
2022-12-08T06:49:53.113Z,18.88
2022-12-08T06:52:19.490Z,24.40
2022-12-08T06:54:45.872Z,23.95
2022-12-08T06:57:12.279Z,23.38
2022-12-08T06:59:39.235Z,24.27
2022-12-08T07:02:06.017Z,25.67
2022-12-08T07:04:32.482Z,23.70
2022-12-08T07:06:58.856Z,27.15
2022-12-08T07:09:25.318Z,26.02
2022-12-08T07:11:51.720Z,22.25
2022-12-08T07:14:18.436Z,22.35
2022-12-08T07:16:44.881Z,23.75
2022-12-08T07:19:11.303Z,23.35
2022-12-08T07:21:37.774Z,22.90
2022-12-08T07:24:04.256Z,23.30
2022-12-08T07:26:30.670Z,24.10
2022-12-08T07:28:57.058Z,22.92
2022-12-08T07:31:24.570Z,21.58
2022-12-08T07:33:51.785Z,19.50
2022-12-08T07:36:18.175Z,20.00
2022-12-08T07:38:44.573Z,20.70
2022-12-08T07:41:14.726Z,18.98
2022-12-08T07:43:41.772Z,19.27
2022-12-08T07:46:08.454Z,21.52
2022-12-08T07:48:34.876Z,21.05
2022-12-08T07:51:04.591Z,22.23
2022-12-08T07:53:31.216Z,22.20
2022-12-08T07:55:57.656Z,21.15
2022-12-08T07:58:24.239Z,21.08
2022-12-08T08:00:50.692Z,20.70
2022-12-08T08:03:17.205Z,19.17
2022-12-08T08:05:44.226Z,18.27
2022-12-08T08:08:11.110Z,19.77
2022-12-08T08:10:37.558Z,19.60
2022-12-08T08:13:03.973Z,20.13
2022-12-08T08:15:30.818Z,19.42
2022-12-08T08:17:57.271Z,18.65
2022-12-08T08:20:23.680Z,26.25
2022-12-08T08:22:50.982Z,24.95
2022-12-08T08:25:17.989Z,24.17
2022-12-08T08:27:44.475Z,25.40
2022-12-08T08:30:16.618Z,24.90
2022-12-08T08:32:46.313Z,22.05
2022-12-08T08:35:12.745Z,22.27
2022-12-08T08:37:40.457Z,18.92
2022-12-08T08:40:09.558Z,18.67
2022-12-08T08:42:35.938Z,20.20
2022-12-08T08:45:02.339Z,18.48
2022-12-08T08:47:28.739Z,18.80
2022-12-08T08:49:55.124Z,17.85
2022-12-08T08:52:21.499Z,16.45
2022-12-08T08:54:47.887Z,17.00
2022-12-08T08:57:14.265Z,16.67
2022-12-08T08:59:40.649Z,17.17
2022-12-08T09:02:07.079Z,18.20
2022-12-08T09:04:33.587Z,17.35
2022-12-08T09:07:00.419Z,19.48
2022-12-08T09:09:26.801Z,19.52
2022-12-08T09:11:53.170Z,16.65
2022-12-08T09:14:19.599Z,15.73
2022-12-08T09:16:45.989Z,14.77
2022-12-08T09:19:12.593Z,14.88
2022-12-08T09:21:39.401Z,19.48
2022-12-08T09:24:05.932Z,36.70
2022-12-08T09:26:32.288Z,29.52
2022-12-08T09:28:58.687Z,27.52
2022-12-08T09:31:25.614Z,31.42
2022-12-08T09:33:52.110Z,25.20
2022-12-08T09:36:19.089Z,22.48
2022-12-08T09:38:46.683Z,20.57
2022-12-08T09:41:27.338Z,22.30
2022-12-08T09:43:57.125Z,19.77
2022-12-08T09:46:25.566Z,18.73
2022-12-08T09:48:55.924Z,18.60
2022-12-08T09:51:27.343Z,15.70
2022-12-08T09:53:56.452Z,14.68
2022-12-08T09:56:24.185Z,13.25
2022-12-08T09:58:56.293Z,13.40
2022-12-08T10:01:23.835Z,13.10
2022-12-08T10:03:50.303Z,11.13
2022-12-08T10:06:16.676Z,11.85
2022-12-08T10:08:49.152Z,10.98
2022-12-08T10:11:19.497Z,11.77
2022-12-08T10:13:51.889Z,11.57
2022-12-08T10:16:26.728Z,12.60
2022-12-08T10:19:00.855Z,11.80
2022-12-08T10:21:28.808Z,9.75
2022-12-08T10:24:01.856Z,9.65
2022-12-08T10:26:28.462Z,9.60
2022-12-08T10:29:01.216Z,9.60
2022-12-08T10:31:27.876Z,9.38
2022-12-08T10:33:58.799Z,11.37
2022-12-08T10:36:43.731Z,9.57
2022-12-08T10:39:28.964Z,9.07
2022-12-08T10:42:00.571Z,7.38
2022-12-08T10:44:27.111Z,6.55
2022-12-08T10:46:53.619Z,6.97
2022-12-08T10:49:28.958Z,6.10
2022-12-08T10:51:55.449Z,4.95
2022-12-08T10:54:42.106Z,5.25
2022-12-08T10:57:19.740Z,4.38
2022-12-08T10:59:46.181Z,4.32
2022-12-08T11:02:18.452Z,3.70
2022-12-08T11:04:44.975Z,3.80
2022-12-08T11:07:11.734Z,3.70
2022-12-08T11:09:48.962Z,3.47
2022-12-08T11:14:44.524Z,2.90
2022-12-08T11:17:13.927Z,3.10
2022-12-08T11:19:41.997Z,3.90
2022-12-08T11:22:26.785Z,3.00
2022-12-08T11:24:57.120Z,3.10
2022-12-08T11:27:23.502Z,2.60
2022-12-08T11:29:50.161Z,2.80
2022-12-08T11:32:16.603Z,2.23
2022-12-08T11:34:45.707Z,1.70
2022-12-08T11:37:18.858Z,2.38
2022-12-08T11:39:49.371Z,2.38
2022-12-08T11:42:18.394Z,2.08
2022-12-08T11:44:51.090Z,2.45
2022-12-08T11:47:26.009Z,2.03
2022-12-08T11:50:02.290Z,1.90
2022-12-08T11:52:34.571Z,1.70
2022-12-08T11:55:03.792Z,2.10
2022-12-08T11:57:30.263Z,2.00
2022-12-08T11:59:57.819Z,2.00
2022-12-08T12:02:25.756Z,2.10
2022-12-08T12:04:52.147Z,2.30
2022-12-08T12:07:26.346Z,1.63
2022-12-08T12:10:11.743Z,1.55
2022-12-08T12:12:40.013Z,1.48
2022-12-08T12:15:15.884Z,1.60
2022-12-08T12:17:42.252Z,1.23
2022-12-08T12:20:14.127Z,1.30
2022-12-08T12:22:41.145Z,1.50
2022-12-08T12:25:15.921Z,1.33
2022-12-08T12:27:44.269Z,1.30
2022-12-08T12:30:19.725Z,1.35
2022-12-08T12:32:52.508Z,1.20
2022-12-08T12:35:32.333Z,1.17
2022-12-08T12:38:01.804Z,1.20
2022-12-08T12:40:29.098Z,1.20
2022-12-08T12:42:55.447Z,1.30
2022-12-08T12:45:21.814Z,0.95
2022-12-08T12:47:57.320Z,0.90
2022-12-08T12:50:41.915Z,1.38
2022-12-08T12:53:17.977Z,1.50
2022-12-08T12:55:57.655Z,1.10
2022-12-08T12:58:30.069Z,1.00
2022-12-08T13:01:12.032Z,1.20
2022-12-08T13:03:42.837Z,1.60
2022-12-08T13:06:14.550Z,1.25
2022-12-08T13:08:50.089Z,1.00
2022-12-08T13:11:16.615Z,1.42
2022-12-08T13:13:56.188Z,1.85
2022-12-08T13:16:24.767Z,1.30
2022-12-08T13:18:52.286Z,1.80
2022-12-08T13:21:21.778Z,1.42
2022-12-08T13:24:12.792Z,2.08
2022-12-08T13:26:57.988Z,1.98
2022-12-08T13:29:25.115Z,1.80
2022-12-08T13:31:52.868Z,2.10
2022-12-08T13:34:19.258Z,3.70
2022-12-08T13:37:13.764Z,3.17
2022-12-08T13:39:40.273Z,3.47
2022-12-08T13:42:12.926Z,2.80
2022-12-08T13:45:19.772Z,4.88
2022-12-08T13:47:34.666Z,3.85
2022-12-08T13:58:49.690Z,3.20
2022-12-08T14:01:23.491Z,2.80
2022-12-08T14:04:33.749Z,2.50
2022-12-08T14:06:43.338Z,2.20
2022-12-08T14:09:21.104Z,2.20
2022-12-08T14:11:51.848Z,2.97
2022-12-08T14:14:45.866Z,3.53
2022-12-08T14:17:11.210Z,3.03
2022-12-08T14:19:37.759Z,2.72
2022-12-08T14:22:12.483Z,3.00
2022-12-08T14:24:39.600Z,3.17
2022-12-08T14:27:07.640Z,3.60
2022-12-08T14:29:43.330Z,3.70
2022-12-08T14:32:20.184Z,3.88
2022-12-08T14:34:50.976Z,3.15
2022-12-08T14:37:17.411Z,3.28
2022-12-08T14:39:44.004Z,3.40
2022-12-08T14:42:20.738Z,4.28
2022-12-08T14:44:47.277Z,2.90
2022-12-08T14:47:18.552Z,2.95
2022-12-08T14:49:45.075Z,3.28
2022-12-08T14:52:11.929Z,3.22
2022-12-08T14:54:39.634Z,2.97
2022-12-08T14:57:07.013Z,3.88
2022-12-08T14:59:35.290Z,4.47
2022-12-08T15:02:19.437Z,4.28
2022-12-08T15:04:47.585Z,3.90
2022-12-08T15:07:18.260Z,4.75
2022-12-08T15:09:46.495Z,7.22
2022-12-08T15:12:12.829Z,14.80
2022-12-08T15:14:54.661Z,11.40
2022-12-08T15:17:30.236Z,10.57
2022-12-08T15:19:57.213Z,6.85
2022-12-08T15:22:24.177Z,8.23
2022-12-08T15:24:50.528Z,5.77
2022-12-08T15:27:18.844Z,3.58
2022-12-08T15:29:46.575Z,3.97
2022-12-08T15:32:15.812Z,4.80
2022-12-08T15:34:42.235Z,4.88
2022-12-08T15:37:22.139Z,3.55
2022-12-08T15:39:48.726Z,3.03
2022-12-08T15:42:15.206Z,3.30
2022-12-08T15:44:41.762Z,5.05
2022-12-08T15:47:26.559Z,6.28
2022-12-08T15:49:53.124Z,6.20
2022-12-08T15:52:20.742Z,5.40
2022-12-08T15:54:47.226Z,3.88
2022-12-08T15:57:25.033Z,3.75
2022-12-08T16:00:02.497Z,3.88
2022-12-08T16:02:43.147Z,4.03
2022-12-08T16:05:41.521Z,3.72
2022-12-08T16:08:17.162Z,4.88
2022-12-08T16:11:29.408Z,4.95
2022-12-08T16:13:59.545Z,4.47
2022-12-08T16:16:34.635Z,5.80
2022-12-08T16:19:01.001Z,5.32
2022-12-08T16:24:14.193Z,6.00
2022-12-08T16:29:26.999Z,5.22
2022-12-08T16:31:53.421Z,5.60
2022-12-08T16:34:20.083Z,5.65
2022-12-08T16:36:46.458Z,6.80
2022-12-08T16:39:13.691Z,8.48
2022-12-08T16:41:58.577Z,8.30
2022-12-08T16:44:25.018Z,5.55
2022-12-08T16:46:51.442Z,5.20
2022-12-08T16:49:17.880Z,7.15
2022-12-08T16:51:44.287Z,7.80
2022-12-08T16:54:10.913Z,8.30
2022-12-08T16:56:37.400Z,7.75
2022-12-08T16:59:03.926Z,8.18
2022-12-08T17:01:30.513Z,8.43
2022-12-08T17:04:29.175Z,8.98
2022-12-08T17:06:43.439Z,9.10
2022-12-08T17:09:09.848Z,7.38
2022-12-08T17:11:42.603Z,7.97
2022-12-08T17:14:10.084Z,7.55
2022-12-08T17:16:36.695Z,7.70
2022-12-08T17:19:03.195Z,10.35
2022-12-08T17:21:29.768Z,11.15
2022-12-08T17:23:56.131Z,11.35
2022-12-08T17:26:22.749Z,12.02
2022-12-08T17:29:00.697Z,11.45
2022-12-08T17:31:30.347Z,11.75
2022-12-08T17:34:05.177Z,11.00
2022-12-08T17:36:32.031Z,15.90
2022-12-08T17:38:59.473Z,12.93
2022-12-08T17:41:25.885Z,14.85
2022-12-08T17:43:52.266Z,12.80
2022-12-08T17:46:19.413Z,11.43
2022-12-08T17:48:46.192Z,14.10
2022-12-08T17:51:12.831Z,14.73
2022-12-08T17:53:40.731Z,13.57
2022-12-08T17:56:13.163Z,12.20
2022-12-08T17:58:39.598Z,12.15
2022-12-08T18:01:09.806Z,18.30
2022-12-08T18:03:36.637Z,12.93
2022-12-08T18:06:06.915Z,14.93
2022-12-08T18:08:33.434Z,12.63
2022-12-08T18:10:59.933Z,12.02
2022-12-08T18:13:26.327Z,13.02
2022-12-08T18:15:52.688Z,14.32
2022-12-08T18:18:19.915Z,14.10
2022-12-08T18:20:46.701Z,14.63
2022-12-08T18:23:13.828Z,15.10
2022-12-08T18:25:40.221Z,14.40
2022-12-08T18:28:06.682Z,15.48
2022-12-08T18:30:33.185Z,15.73
2022-12-08T18:32:59.583Z,14.35
2022-12-08T18:35:27.036Z,12.45
2022-12-08T18:37:53.427Z,12.48
2022-12-08T18:40:19.843Z,12.85
2022-12-08T18:42:46.218Z,14.57
2022-12-08T18:45:14.071Z,19.40
2022-12-08T18:47:42.165Z,16.77
2022-12-08T18:50:09.403Z,15.77
2022-12-08T18:52:36.080Z,14.75
2022-12-08T18:55:07.014Z,13.43
2022-12-08T18:57:34.679Z,13.55
2022-12-08T19:00:02.562Z,14.60
2022-12-08T19:04:55.975Z,16.90
2022-12-08T19:07:22.549Z,15.15
2022-12-08T19:09:48.938Z,16.65
2022-12-08T19:12:15.305Z,19.95
2022-12-08T19:14:41.946Z,16.25
2022-12-08T19:17:08.385Z,17.38
2022-12-08T19:19:35.444Z,16.92
2022-12-08T19:22:02.022Z,17.00
2022-12-08T19:24:28.968Z,16.83
2022-12-08T19:26:55.368Z,16.52
2022-12-08T19:29:21.749Z,15.65
2022-12-08T19:31:48.294Z,18.90
2022-12-08T19:34:14.890Z,21.23
2022-12-08T19:36:45.017Z,18.10
2022-12-08T19:39:32.918Z,17.67
2022-12-08T19:42:18.155Z,16.95
2022-12-08T19:44:53.491Z,16.88
2022-12-08T19:47:21.034Z,17.08
2022-12-08T19:49:47.734Z,16.48
2022-12-08T19:52:14.201Z,16.15
2022-12-08T19:54:40.618Z,16.48
2022-12-08T19:57:06.997Z,14.63
2022-12-08T19:59:33.412Z,15.18
2022-12-08T20:01:59.928Z,14.70
2022-12-08T20:04:27.327Z,22.52
2022-12-08T20:06:55.116Z,21.92
2022-12-08T20:09:21.625Z,18.48
2022-12-08T20:11:48.099Z,18.75
2022-12-08T20:14:14.480Z,17.75
2022-12-08T20:16:41.802Z,16.17
2022-12-08T20:19:09.129Z,14.63
2022-12-08T20:21:35.616Z,16.53
2022-12-08T20:24:02.030Z,16.10
2022-12-08T20:26:28.412Z,20.27
2022-12-08T20:28:54.769Z,18.27
2022-12-08T20:31:23.322Z,20.83
2022-12-08T20:33:50.086Z,20.60
2022-12-08T20:36:18.762Z,20.98
2022-12-08T20:38:45.786Z,20.55
2022-12-08T20:41:12.192Z,19.10
2022-12-08T20:43:38.679Z,24.80
2022-12-08T20:46:05.903Z,23.70
2022-12-08T20:48:32.384Z,29.05
2022-12-08T20:50:58.902Z,56.88
2022-12-08T20:53:25.376Z,43.97
2022-12-08T20:55:51.861Z,27.35
2022-12-08T20:58:18.312Z,20.50
2022-12-08T21:00:44.750Z,21.25
2022-12-08T21:03:12.627Z,21.55
2022-12-08T21:08:06.590Z,23.70
2022-12-08T21:10:35.852Z,46.85
2022-12-08T21:13:05.494Z,41.00
2022-12-08T21:15:32.007Z,33.80
2022-12-08T21:17:58.652Z,34.13
2022-12-08T21:20:25.141Z,35.63
2022-12-08T21:22:51.801Z,29.13
2022-12-08T21:25:18.413Z,24.20
2022-12-08T21:27:44.918Z,23.23
2022-12-08T21:30:12.094Z,23.92
2022-12-08T21:32:39.278Z,26.00
2022-12-08T21:35:06.288Z,27.63
2022-12-08T21:37:33.181Z,26.98
2022-12-08T21:39:59.669Z,23.98
2022-12-08T21:42:44.399Z,24.05
2022-12-08T21:45:12.239Z,22.60
2022-12-08T21:47:39.375Z,25.13
2022-12-08T21:50:06.843Z,23.25
2022-12-08T21:52:36.340Z,21.80
2022-12-08T21:55:02.887Z,22.42
2022-12-08T21:57:29.430Z,20.58
2022-12-08T21:59:55.917Z,20.20
2022-12-08T22:02:22.976Z,21.33
2022-12-08T22:04:50.382Z,23.17
2022-12-08T22:07:17.160Z,23.48
2022-12-08T22:09:44.150Z,27.92
2022-12-08T22:12:13.568Z,30.83
2022-12-08T22:14:40.400Z,31.00
2022-12-08T22:17:07.240Z,29.80
2022-12-08T22:19:34.052Z,29.13
2022-12-08T22:22:00.764Z,24.38
2022-12-08T22:24:29.142Z,23.10
2022-12-08T22:26:56.009Z,21.30
2022-12-08T22:29:22.545Z,21.52
2022-12-08T22:31:49.233Z,22.63
2022-12-08T22:34:15.907Z,21.13
2022-12-08T22:36:42.860Z,22.25
2022-12-08T22:39:09.852Z,27.58
2022-12-08T22:41:36.487Z,25.55
2022-12-08T22:44:05.308Z,25.35
2022-12-08T22:46:31.896Z,24.45
2022-12-08T22:48:58.411Z,24.88
2022-12-08T22:51:24.784Z,20.65
2022-12-08T22:53:51.400Z,21.00
2022-12-08T22:56:18.730Z,20.30
2022-12-08T22:58:45.521Z,21.00
2022-12-08T23:01:23.056Z,19.90
2022-12-08T23:03:50.095Z,20.92
2022-12-08T23:06:16.687Z,19.57
2022-12-08T23:08:44.013Z,20.17
2022-12-08T23:11:10.504Z,20.35
2022-12-08T23:13:37.389Z,19.20
2022-12-08T23:16:03.867Z,20.00
2022-12-08T23:18:30.495Z,19.15
2022-12-08T23:21:02.579Z,21.48
2022-12-08T23:23:29.275Z,19.65
2022-12-08T23:25:55.681Z,20.23
2022-12-08T23:28:22.103Z,19.25
2022-12-08T23:30:48.511Z,19.00
2022-12-08T23:33:15.186Z,20.42
2022-12-08T23:35:41.751Z,20.60
2022-12-08T23:38:08.164Z,21.73
2022-12-08T23:40:34.699Z,20.77
2022-12-08T23:43:01.216Z,20.83
2022-12-08T23:45:27.667Z,21.95
2022-12-08T23:47:54.262Z,20.65
2022-12-08T23:50:20.724Z,20.33
2022-12-08T23:52:47.336Z,20.63
2022-12-08T23:55:13.751Z,20.23
2022-12-08T23:57:40.200Z,20.50
